Time;durP1;ratioP1;P1;durP2;ratioP2;P2;SDS_P1;SDS_P2;PMS_P1;PMS_P2;Temp;Humidity;BMP_temperature;BMP_pressure;BME280_temperature;BME280_humidity;BME280_pressure;Samples;Min_cycle;Max_cycle;Signal;HPM_P1;HPM_P2
2022/12/22 03:25:50;;;;;;;42.47;14.63;;;9.90;99.90;;;;;;4952768;28;20659;-65
2022/12/22 03:28:19;;;;;;;36.63;13.90;;;9.90;99.90;;;;;;4952674;29;20192;-65
2022/12/22 03:30:54;;;;;;;23.33;12.47;;;9.90;99.90;;;;;;4951774;28;20196;-65
2022/12/22 03:33:22;;;;;;;33.93;15.00;;;9.90;99.90;;;;;;4952571;28;20191;-65
2022/12/22 03:35:51;;;;;;;25.70;13.33;;;9.90;99.90;;;;;;4951281;29;20200;-65
2022/12/22 03:38:23;;;;;;;42.50;16.77;;;9.90;99.90;;;;;;4952744;28;20196;-65
2022/12/22 03:40:53;;;;;;;39.70;17.07;;;9.90;99.90;;;;;;4952992;28;20655;-65
2022/12/22 03:49:12;;;;;;;37.50;17.23;;;9.90;99.90;;;;;;4952921;28;20184;-66
2022/12/22 03:51:43;;;;;;;40.37;17.40;;;9.90;99.90;;;;;;4952444;28;20586;-65
2022/12/22 03:54:13;;;;;;;43.13;17.27;;;9.90;99.90;;;;;;4952504;28;20193;-65
2022/12/22 03:56:43;;;;;;;42.20;17.07;;;9.90;99.90;;;;;;4952307;28;20196;-66
2022/12/22 03:59:12;;;;;;;51.63;18.37;;;9.90;99.90;;;;;;4951084;29;20196;-65
2022/12/22 04:01:43;;;;;;;45.40;18.53;;;9.90;99.90;;;;;;4951054;29;20668;-65
2022/12/22 04:04:13;;;;;;;56.67;18.20;;;9.90;99.90;;;;;;4951584;29;20200;-65
2022/12/22 04:06:42;;;;;;;46.13;18.20;;;9.90;99.90;;;;;;4952335;28;20279;-65
2022/12/22 04:09:11;;;;;;;56.87;18.87;;;9.90;99.90;;;;;;4952147;29;20215;-65
2022/12/22 04:14:27;;;;;;;45.97;16.80;;;9.90;99.90;;;;;;4951795;29;20275;-65
2022/12/22 04:17:02;;;;;;;46.77;17.57;;;9.90;99.90;;;;;;4951112;28;20543;-66
2022/12/22 04:19:31;;;;;;;52.13;18.27;;;9.90;99.90;;;;;;4952616;29;20219;-66
2022/12/22 04:21:59;;;;;;;43.87;16.80;;;9.90;99.90;;;;;;4952576;28;20279;-66
2022/12/22 04:24:28;;;;;;;38.10;16.07;;;9.80;99.90;;;;;;4951642;29;20239;-66
2022/12/22 04:26:57;;;;;;;47.17;17.67;;;9.90;99.90;;;;;;4951993;29;20196;-66
2022/12/22 04:29:28;;;;;;;43.73;17.03;;;9.90;99.90;;;;;;4952685;28;20200;-65
2022/12/22 04:31:56;;;;;;;47.97;17.37;;;9.90;99.90;;;;;;4951817;28;20201;-65
2022/12/22 04:34:24;;;;;;;55.10;17.40;;;9.80;99.90;;;;;;4951897;28;20193;-66
2022/12/22 04:36:53;;;;;;;62.17;18.97;;;9.80;99.90;;;;;;4952381;28;20283;-65
2022/12/22 04:39:21;;;;;;;50.70;16.23;;;9.80;99.90;;;;;;4951952;29;20196;-65
2022/12/22 04:41:49;;;;;;;71.47;18.27;;;9.80;99.90;;;;;;4982999;28;20195;-65
2022/12/22 04:44:18;;;;;;;46.20;16.37;;;9.80;99.90;;;;;;4953737;29;20204;-65
2022/12/22 04:46:47;;;;;;;43.20;16.27;;;9.80;99.90;;;;;;4955068;28;20238;-63
2022/12/22 04:49:16;;;;;;;48.97;17.20;;;9.80;99.90;;;;;;4954940;29;20197;-64
2022/12/22 04:51:45;;;;;;;48.93;17.23;;;9.80;99.90;;;;;;4955183;28;20188;-63
2022/12/22 04:54:13;;;;;;;47.40;17.60;;;9.80;99.90;;;;;;4955243;28;20219;-65
2022/12/22 04:56:42;;;;;;;55.83;18.63;;;9.80;99.90;;;;;;4970243;28;20200;-65
2022/12/22 04:59:10;;;;;;;56.00;19.37;;;9.80;99.90;;;;;;4969621;28;20204;-65
2022/12/22 05:01:39;;;;;;;63.40;19.60;;;9.80;99.90;;;;;;4955296;29;20211;-65
2022/12/22 05:04:39;;;;;;;53.03;18.60;;;9.80;99.90;;;;;;4970569;28;20196;-65
2022/12/22 05:07:07;;;;;;;69.90;19.77;;;9.80;99.90;;;;;;4985914;28;20228;-66
2022/12/22 05:09:36;;;;;;;70.47;20.07;;;9.80;99.90;;;;;;4955019;28;20200;-66
2022/12/22 05:14:49;;;;;;;64.03;20.60;;;9.80;99.90;;;;;;4954465;29;20734;-65
2022/12/22 05:17:18;;;;;;;71.50;21.20;;;9.80;99.90;;;;;;4954775;29;20193;-65
2022/12/22 05:19:50;;;;;;;62.93;20.37;;;9.80;99.90;;;;;;4955326;29;20204;-65
2022/12/22 05:22:19;;;;;;;64.43;21.40;;;9.80;99.90;;;;;;4954641;28;20597;-65
2022/12/22 05:24:47;;;;;;;67.57;22.97;;;9.80;99.90;;;;;;4954365;28;20232;-65
2022/12/22 05:27:15;;;;;;;66.97;22.90;;;9.80;99.90;;;;;;4953803;29;20705;-65
2022/12/22 05:29:44;;;;;;;74.40;24.37;;;9.90;99.90;;;;;;4954942;28;20627;-65
2022/12/22 05:32:12;;;;;;;68.30;23.23;;;9.90;99.90;;;;;;4954638;28;20640;-65
2022/12/22 05:34:40;;;;;;;80.07;26.30;;;9.80;99.90;;;;;;4954470;28;20192;-65
2022/12/22 05:37:10;;;;;;;72.87;24.80;;;9.80;99.90;;;;;;4954437;28;20188;-66
2022/12/22 05:39:39;;;;;;;86.10;30.90;;;9.80;99.90;;;;;;4954636;28;20192;-65
2022/12/22 05:42:07;;;;;;;79.77;29.13;;;9.80;99.90;;;;;;4953063;28;20207;-65
2022/12/22 05:44:36;;;;;;;80.30;26.93;;;9.80;99.90;;;;;;4954309;29;20199;-65
2022/12/22 05:47:04;;;;;;;70.93;24.20;;;9.80;99.90;;;;;;4954373;29;20702;-65
2022/12/22 05:49:33;;;;;;;75.40;28.07;;;9.80;99.90;;;;;;4954108;28;20192;-65
2022/12/22 05:52:01;;;;;;;70.60;23.60;;;9.80;99.90;;;;;;4954563;28;20515;-65
2022/12/22 05:54:31;;;;;;;65.77;22.37;;;9.80;99.90;;;;;;4953745;28;20196;-65
2022/12/22 05:57:02;;;;;;;60.37;21.50;;;9.90;99.90;;;;;;4953040;29;20202;-65
2022/12/22 05:59:31;;;;;;;65.73;22.47;;;9.90;99.90;;;;;;4954242;28;20685;-65
2022/12/22 06:01:59;;;;;;;62.63;21.43;;;9.90;99.90;;;;;;4954080;28;20211;-65
2022/12/22 06:04:28;;;;;;;58.00;19.67;;;9.90;99.90;;;;;;4954476;28;20188;-66
2022/12/22 06:06:56;;;;;;;57.10;20.17;;;9.90;99.90;;;;;;4952604;29;20213;-65
2022/12/22 06:09:25;;;;;;;60.53;20.50;;;9.90;99.90;;;;;;4968692;28;20196;-65
2022/12/22 06:11:55;;;;;;;64.07;20.20;;;9.80;99.90;;;;;;4953833;28;20734;-65
2022/12/22 06:14:23;;;;;;;66.00;21.87;;;9.80;99.90;;;;;;4968644;28;20555;-66
2022/12/22 06:16:51;;;;;;;76.73;23.77;;;9.80;99.90;;;;;;4953730;28;20204;-65
2022/12/22 06:19:22;;;;;;;85.90;24.23;;;9.80;99.90;;;;;;4952640;29;20202;-65
2022/12/22 06:21:51;;;;;;;87.77;25.70;;;9.80;99.90;;;;;;4953702;28;20188;-65
2022/12/22 06:24:19;;;;;;;86.83;25.37;;;9.70;99.90;;;;;;4953550;29;20247;-65
2022/12/22 06:26:47;;;;;;;93.47;25.67;;;9.70;99.90;;;;;;5008131;28;20671;-65
2022/12/22 06:29:17;;;;;;;94.07;26.80;;;9.70;99.90;;;;;;5055013;28;20653;-65
2022/12/22 06:31:45;;;;;;;104.23;29.57;;;9.70;99.90;;;;;;5053114;28;20201;-65
2022/12/22 06:34:16;;;;;;;106.37;28.87;;;9.60;99.90;;;;;;5054604;28;20657;-65
2022/12/22 06:36:45;;;;;;;106.83;30.70;;;9.60;99.90;;;;;;5069953;28;20189;-64
2022/12/22 06:39:14;;;;;;;104.83;31.20;;;9.60;99.90;;;;;;5054760;28;20656;-65
2022/12/22 06:44:30;;;;;;;95.40;29.00;;;9.50;99.90;;;;;;5054097;28;20185;-65
2022/12/22 06:46:59;;;;;;;117.23;31.03;;;9.50;99.90;;;;;;5052996;28;20212;-65
2022/12/22 06:49:27;;;;;;;105.13;29.70;;;9.50;99.90;;;;;;5054198;28;20192;-65
2022/12/22 07:00:13;;;;;;;90.13;25.17;;;9.40;99.90;;;;;;5053933;28;20169;-65
2022/12/22 07:02:42;;;;;;;115.73;35.43;;;9.30;99.90;;;;;;5069792;28;20598;-65
2022/12/22 07:09:47;;;;;;;102.70;27.27;;;9.20;99.90;;;;;;5053809;28;20646;-65
2022/12/22 07:12:18;;;;;;;109.83;29.93;;;9.10;99.90;;;;;;5054477;28;20242;-65
2022/12/22 07:14:46;;;;;;;106.97;29.70;;;9.00;99.90;;;;;;5054125;28;20539;-65
2022/12/22 07:17:16;;;;;;;105.93;28.60;;;8.90;99.90;;;;;;5053495;28;20193;-65
2022/12/22 07:19:45;;;;;;;86.97;26.10;;;8.80;99.90;;;;;;5070048;28;20212;-65
2022/12/22 07:22:13;;;;;;;86.47;26.23;;;8.80;99.90;;;;;;5052763;28;20196;-65
2022/12/22 07:24:42;;;;;;;100.00;25.87;;;8.70;99.90;;;;;;5054055;28;20224;-65
2022/12/22 07:27:10;;;;;;;100.07;26.60;;;8.60;99.90;;;;;;5053381;28;20220;-65
2022/12/22 07:29:39;;;;;;;100.67;26.83;;;8.50;99.90;;;;;;5054232;28;20204;-65
2022/12/22 07:32:08;;;;;;;98.37;27.80;;;8.50;99.90;;;;;;5054094;28;20188;-65
2022/12/22 07:34:38;;;;;;;103.03;27.97;;;8.40;99.90;;;;;;5053559;28;20647;-65
2022/12/22 07:37:08;;;;;;;116.53;29.77;;;8.40;99.90;;;;;;5053350;28;20185;-64
2022/12/22 07:39:37;;;;;;;115.93;30.40;;;8.50;99.90;;;;;;5053479;28;20551;-65
2022/12/22 07:44:51;;;;;;;128.30;31.50;;;8.60;99.90;;;;;;5052360;28;20662;-65
2022/12/22 07:47:19;;;;;;;128.03;31.07;;;8.60;99.90;;;;;;5053074;28;20205;-64
2022/12/22 07:52:35;;;;;;;122.30;30.73;;;8.60;99.90;;;;;;5053837;28;20544;-65
2022/12/22 07:55:03;;;;;;;132.37;33.23;;;8.50;99.90;;;;;;5053484;28;20192;-65
2022/12/22 07:57:31;;;;;;;122.43;31.83;;;8.50;99.90;;;;;;5053110;28;20649;-65
2022/12/22 08:00:00;;;;;;;132.77;32.63;;;8.50;99.90;;;;;;5052979;28;20199;-64
2022/12/22 08:02:29;;;;;;;130.80;32.03;;;8.40;99.90;;;;;;5053689;28;20223;-65
2022/12/22 08:05:09;;;;;;;138.60;31.40;;;8.40;99.90;;;;;;5053135;28;20662;-65
2022/12/22 08:07:37;;;;;;;143.63;32.70;;;8.40;99.90;;;;;;5052455;28;20666;-65
2022/12/22 08:10:06;;;;;;;133.60;32.20;;;8.40;99.90;;;;;;5052915;28;20549;-65
2022/12/22 08:12:34;;;;;;;141.90;30.77;;;8.40;99.90;;;;;;5053148;28;20189;-65
2022/12/22 08:15:03;;;;;;;132.50;31.07;;;8.40;99.90;;;;;;5053174;28;20196;-65
2022/12/22 08:22:23;;;;;;;135.27;31.13;;;8.40;99.90;;;;;;5056879;28;20179;-64
2022/12/22 08:24:52;;;;;;;116.60;30.50;;;8.50;99.90;;;;;;5056651;28;20587;-65
2022/12/22 08:27:26;;;;;;;126.70;31.07;;;8.50;99.90;;;;;;5056925;28;20219;-65
2022/12/22 08:29:57;;;;;;;122.07;30.40;;;8.50;99.90;;;;;;5057123;28;20212;-65
2022/12/22 08:32:26;;;;;;;120.73;30.40;;;8.40;99.90;;;;;;5055334;28;20338;-64
2022/12/22 08:34:55;;;;;;;111.03;29.17;;;8.40;99.90;;;;;;5057274;28;20291;-65
2022/12/22 08:37:31;;;;;;;97.23;28.27;;;8.40;99.90;;;;;;5056560;28;20181;-64
2022/12/22 08:40:04;;;;;;;103.67;27.40;;;8.40;99.90;;;;;;5056570;28;20192;-65
2022/12/22 08:42:33;;;;;;;96.73;27.07;;;8.50;99.90;;;;;;5055327;28;20383;-65
2022/12/22 08:45:02;;;;;;;100.20;26.67;;;8.50;99.90;;;;;;5020768;28;20662;-65
2022/12/22 08:47:32;;;;;;;84.07;25.90;;;8.60;99.90;;;;;;4955063;28;20571;-65
2022/12/22 08:50:01;;;;;;;87.83;26.33;;;8.60;99.90;;;;;;4955125;28;20197;-65
2022/12/22 08:52:31;;;;;;;79.77;25.33;;;8.70;99.90;;;;;;4954998;29;20196;-64
2022/12/22 08:54:59;;;;;;;79.07;26.23;;;8.60;99.90;;;;;;4954975;29;20196;-65
2022/12/22 08:57:28;;;;;;;67.97;24.40;;;8.60;99.90;;;;;;4953849;28;20206;-65
2022/12/22 08:59:56;;;;;;;66.10;24.27;;;8.60;99.90;;;;;;4955157;29;20559;-65
2022/12/22 09:02:27;;;;;;;67.77;25.67;;;8.60;99.90;;;;;;4955626;29;20643;-65
2022/12/22 09:04:55;;;;;;;70.03;25.20;;;8.60;99.90;;;;;;4954932;29;20196;-64
2022/12/22 09:07:24;;;;;;;66.17;26.23;;;8.60;99.90;;;;;;4953389;29;20266;-64
2022/12/22 09:14:44;;;;;;;71.67;24.77;;;8.70;99.90;;;;;;4954713;29;20309;-64
2022/12/22 09:17:13;;;;;;;70.37;25.00;;;8.70;99.90;;;;;;4954567;29;20267;-65
2022/12/22 09:24:26;;;;;;;72.13;26.10;;;8.80;99.90;;;;;;4954689;29;20226;-64
2022/12/22 09:26:54;;;;;;;76.33;27.27;;;8.80;99.90;;;;;;4953282;29;20192;-64
2022/12/22 09:29:23;;;;;;;89.33;32.10;;;8.80;99.90;;;;;;4953694;28;20184;-64
2022/12/22 09:31:52;;;;;;;125.30;41.83;;;8.80;99.90;;;;;;4954407;29;20196;-64
2022/12/22 09:34:21;;;;;;;112.93;38.40;;;8.70;99.90;;;;;;4954716;28;20779;-64
2022/12/22 09:36:49;;;;;;;96.03;34.77;;;8.70;99.90;;;;;;4953411;29;20192;-64
2022/12/22 09:39:17;;;;;;;97.33;36.57;;;8.60;99.90;;;;;;4954447;28;20619;-64
2022/12/22 09:41:58;;;;;;;97.43;36.93;;;8.60;99.90;;;;;;4953452;29;20249;-64
2022/12/22 09:44:29;;;;;;;105.40;40.83;;;8.60;99.90;;;;;;4954874;28;20577;-64
2022/12/22 09:47:02;;;;;;;104.33;39.83;;;8.60;99.90;;;;;;4953584;28;20195;-64
2022/12/22 09:49:31;;;;;;;99.43;38.53;;;8.60;99.90;;;;;;4954699;28;20224;-64
2022/12/22 09:52:02;;;;;;;104.40;40.07;;;8.60;99.90;;;;;;4954144;28;20283;-64
2022/12/22 09:54:31;;;;;;;78.67;32.77;;;8.60;99.90;;;;;;4954601;28;20210;-64
2022/12/22 09:56:59;;;;;;;65.07;28.30;;;8.60;99.90;;;;;;4954104;28;20194;-64
2022/12/22 09:59:30;;;;;;;53.40;26.83;;;8.60;99.90;;;;;;4954203;28;20568;-64
2022/12/22 10:02:16;;;;;;;51.60;25.30;;;8.60;99.90;;;;;;4952854;29;20203;-64
2022/12/22 10:04:56;;;;;;;55.43;25.83;;;8.60;99.90;;;;;;4953977;28;20196;-64
2022/12/22 10:07:31;;;;;;;46.83;25.73;;;8.50;99.90;;;;;;4954699;29;20196;-64
2022/12/22 10:10:05;;;;;;;49.33;25.10;;;8.50;99.90;;;;;;4954364;29;20195;-64
2022/12/22 10:12:33;;;;;;;43.17;22.63;;;8.60;99.90;;;;;;4952941;29;20662;-63
2022/12/22 10:15:03;;;;;;;45.27;23.70;;;8.60;99.90;;;;;;4952673;29;20543;-64
2022/12/22 10:17:34;;;;;;;43.43;22.17;;;8.60;99.90;;;;;;4954282;29;20207;-64
2022/12/22 10:20:21;;;;;;;42.33;21.10;;;8.60;99.90;;;;;;4953779;28;20192;-64
2022/12/22 10:22:52;;;;;;;36.60;18.77;;;8.70;99.90;;;;;;4953739;28;20200;-63
2022/12/22 10:25:30;;;;;;;29.03;17.33;;;8.70;99.90;;;;;;4953853;29;20279;-64
2022/12/22 10:28:22;;;;;;;28.40;17.03;;;8.70;99.90;;;;;;4952856;29;20671;-64
2022/12/22 10:31:09;;;;;;;29.87;17.13;;;8.80;99.90;;;;;;4952744;28;20279;-64
2022/12/22 10:33:39;;;;;;;23.90;14.77;;;8.80;99.90;;;;;;4953539;29;20197;-64
2022/12/22 10:36:14;;;;;;;22.37;13.93;;;8.90;99.90;;;;;;4952999;29;20202;-64
2022/12/22 10:38:55;;;;;;;24.30;12.87;;;9.10;99.90;;;;;;4953791;28;20275;-64
2022/12/22 10:41:26;;;;;;;17.33;9.90;;;9.40;99.90;;;;;;4953414;28;20211;-64
2022/12/22 10:43:58;;;;;;;14.93;9.83;;;9.50;99.90;;;;;;4952189;29;20198;-63
2022/12/22 10:46:35;;;;;;;18.10;10.27;;;9.70;99.90;;;;;;4953871;28;20263;-64
2022/12/22 10:49:21;;;;;;;16.60;10.37;;;9.70;99.90;;;;;;4952523;29;20703;-64
2022/12/22 10:51:54;;;;;;;15.33;10.07;;;9.80;99.90;;;;;;4953689;29;20181;-64
2022/12/22 10:54:34;;;;;;;15.40;9.83;;;9.80;99.90;;;;;;4952025;29;20239;-64
2022/12/22 10:57:06;;;;;;;12.43;9.33;;;9.80;99.90;;;;;;4953186;28;20275;-64
2022/12/22 10:59:46;;;;;;;11.67;8.60;;;9.80;99.90;;;;;;4953333;28;20196;-63
2022/12/22 11:02:30;;;;;;;16.53;8.70;;;9.90;99.90;;;;;;4953057;28;20284;-63
2022/12/22 11:05:38;;;;;;;8.20;6.00;;;9.90;99.90;;;;;;4953592;29;20199;-63
2022/12/22 11:08:16;;;;;;;11.77;7.00;;;9.90;99.90;;;;;;4952439;29;20200;-63
2022/12/22 11:10:51;;;;;;;7.77;6.43;;;9.80;99.90;;;;;;4967531;28;20275;-63
2022/12/22 11:13:51;;;;;;;9.43;6.73;;;9.90;99.90;;;;;;4952945;28;20670;-63
2022/12/22 11:16:25;;;;;;;9.27;6.67;;;10.00;99.90;;;;;;4951758;29;20204;-63
2022/12/22 11:19:07;;;;;;;13.43;6.90;;;10.10;99.90;;;;;;4953186;28;20672;-63
2022/12/22 11:21:44;;;;;;;7.63;6.60;;;10.20;99.90;;;;;;4951974;29;20202;-63
2022/12/22 11:24:25;;;;;;;15.37;9.13;;;10.20;99.90;;;;;;4952657;28;20241;-63
2022/12/22 11:27:07;;;;;;;14.83;9.63;;;10.10;99.90;;;;;;4951611;29;20199;-61
2022/12/22 11:30:02;;;;;;;16.50;10.23;;;10.20;99.90;;;;;;4952715;28;20200;-63
2022/12/22 11:33:02;;;;;;;14.30;10.40;;;10.20;99.90;;;;;;4953185;28;20203;-63
2022/12/22 11:35:45;;;;;;;18.47;11.60;;;10.30;99.90;;;;;;4952480;29;20543;-63
2022/12/22 11:42:59;;;;;;;18.50;10.67;;;10.30;99.90;;;;;;4953221;28;20186;-63
2022/12/22 11:45:46;;;;;;;11.43;9.37;;;10.20;99.90;;;;;;4952581;28;20192;-63
2022/12/22 11:48:46;;;;;;;12.03;8.43;;;10.20;99.90;;;;;;4951892;28;20585;-63
2022/12/22 11:51:26;;;;;;;8.33;7.33;;;10.20;99.90;;;;;;4935941;29;20200;-63
2022/12/22 11:54:34;;;;;;;9.57;7.90;;;10.30;99.90;;;;;;4950720;28;20176;-63
2022/12/22 11:57:13;;;;;;;11.73;7.40;;;10.40;99.90;;;;;;4983626;28;20196;-63
2022/12/22 11:59:54;;;;;;;8.90;6.83;;;10.40;99.90;;;;;;4951175;29;20188;-63
2022/12/22 12:02:49;;;;;;;6.13;5.63;;;10.60;99.90;;;;;;4951451;29;20192;-63
2022/12/22 12:05:37;;;;;;;9.10;5.97;;;10.60;99.90;;;;;;4983558;28;20201;-62
2022/12/22 12:08:15;;;;;;;6.47;5.13;;;10.80;99.90;;;;;;4951663;29;20199;-63
2022/12/22 12:10:47;;;;;;;7.50;5.97;;;10.90;99.90;;;;;;4983395;28;20188;-63
2022/12/22 12:13:27;;;;;;;5.63;5.13;;;10.90;99.90;;;;;;4952542;28;20543;-63
2022/12/22 12:16:17;;;;;;;5.63;4.60;;;11.00;99.90;;;;;;4952511;28;20439;-63
2022/12/22 12:19:08;;;;;;;4.93;4.37;;;10.90;99.90;;;;;;4950907;29;20219;-63
2022/12/22 12:21:45;;;;;;;4.33;3.90;;;10.80;99.90;;;;;;4955095;28;20216;-63
2022/12/22 12:24:29;;;;;;;5.73;4.23;;;10.60;99.90;;;;;;4951168;28;20239;-64
2022/12/22 12:27:06;;;;;;;4.53;4.23;;;10.50;99.90;;;;;;4952048;28;20188;-63
2022/12/22 12:29:40;;;;;;;6.67;4.30;;;10.50;99.90;;;;;;4950753;29;20536;-63
2022/12/22 12:32:16;;;;;;;6.80;4.23;;;10.40;99.90;;;;;;4952379;28;20200;-63
2022/12/22 12:34:50;;;;;;;4.70;4.27;;;10.50;99.90;;;;;;4952319;29;20206;-63
2022/12/22 12:37:23;;;;;;;4.77;4.27;;;10.40;99.90;;;;;;4952144;28;20271;-63
2022/12/22 12:40:02;;;;;;;5.40;4.63;;;10.30;99.90;;;;;;4951902;28;20204;-64
2022/12/22 12:42:34;;;;;;;12.90;4.70;;;10.30;99.90;;;;;;4952113;29;20561;-63
2022/12/22 12:45:04;;;;;;;6.50;4.57;;;10.20;99.90;;;;;;4952534;29;20195;-63
2022/12/22 12:47:34;;;;;;;5.27;4.73;;;10.10;99.90;;;;;;4952048;29;20199;-64
2022/12/22 12:50:21;;;;;;;5.80;5.13;;;10.00;99.90;;;;;;4950859;29;20566;-63
2022/12/22 12:53:14;;;;;;;7.77;5.33;;;9.90;99.90;;;;;;4952038;28;20288;-63
2022/12/22 12:56:05;;;;;;;5.70;5.23;;;9.80;99.90;;;;;;4950551;28;20200;-63
2022/12/22 12:58:51;;;;;;;7.33;5.60;;;9.70;99.90;;;;;;4951665;28;20205;-63
2022/12/22 13:01:57;;;;;;;8.40;5.20;;;9.70;99.90;;;;;;4951936;28;20712;-63
2022/12/22 13:05:10;;;;;;;7.20;5.50;;;9.70;99.90;;;;;;4953749;28;20192;-63
2022/12/22 13:08:15;;;;;;;7.83;6.00;;;9.70;99.90;;;;;;4955285;28;20196;-63
2022/12/22 13:10:47;;;;;;;11.07;6.43;;;9.60;99.90;;;;;;4954750;29;20307;-64
2022/12/22 13:13:45;;;;;;;8.73;5.83;;;9.60;99.90;;;;;;4955328;28;20212;-64
2022/12/22 13:16:25;;;;;;;7.00;5.80;;;9.60;99.90;;;;;;4954769;28;20250;-63
2022/12/22 13:18:58;;;;;;;5.77;5.33;;;9.70;99.90;;;;;;4953720;29;20185;-63
2022/12/22 13:21:38;;;;;;;6.97;6.00;;;9.70;99.90;;;;;;4955184;28;20231;-64
2022/12/22 13:24:28;;;;;;;6.50;5.90;;;9.70;99.90;;;;;;4953587;28;20244;-63
2022/12/22 13:27:03;;;;;;;7.03;6.33;;;9.60;99.90;;;;;;4953819;28;20192;-63
2022/12/22 13:29:42;;;;;;;6.87;6.30;;;9.60;99.90;;;;;;4954777;28;20298;-63
2022/12/22 13:32:23;;;;;;;7.10;6.30;;;9.70;99.90;;;;;;4954946;28;20203;-63
2022/12/22 13:35:04;;;;;;;10.47;6.80;;;9.70;99.90;;;;;;4954992;28;20534;-63
2022/12/22 13:37:53;;;;;;;9.67;6.90;;;9.80;99.90;;;;;;4954611;28;20200;-63
2022/12/22 13:40:25;;;;;;;10.93;7.97;;;9.80;99.90;;;;;;4954840;28;20275;-63
2022/12/22 13:42:56;;;;;;;9.93;7.73;;;9.90;99.90;;;;;;4953545;28;20200;-63
2022/12/22 13:45:31;;;;;;;8.27;7.30;;;9.90;99.90;;;;;;4954349;29;20180;-63
2022/12/22 13:48:04;;;;;;;9.57;7.53;;;10.00;99.90;;;;;;4953273;29;20305;-63
2022/12/22 13:50:36;;;;;;;12.03;8.43;;;10.00;99.90;;;;;;4954353;28;20215;-63
2022/12/22 13:53:09;;;;;;;10.93;7.50;;;10.00;99.90;;;;;;4954851;29;20203;-63
2022/12/22 13:55:39;;;;;;;11.17;7.30;;;10.00;99.90;;;;;;4954102;28;20195;-63
2022/12/22 13:58:22;;;;;;;15.73;8.03;;;10.10;99.90;;;;;;4954828;28;20181;-63
2022/12/22 14:01:01;;;;;;;16.33;7.57;;;10.20;99.90;;;;;;4954357;29;20630;-64
2022/12/22 14:03:30;;;;;;;19.10;7.67;;;10.20;99.90;;;;;;4954571;28;20250;-63
2022/12/22 14:06:20;;;;;;;16.33;7.97;;;10.20;99.90;;;;;;4954311;28;20196;-63
2022/12/22 14:08:49;;;;;;;17.63;7.73;;;10.30;99.90;;;;;;4953904;29;20651;-63
2022/12/22 14:11:19;;;;;;;17.70;8.23;;;10.30;99.90;;;;;;4954436;29;20234;-63
2022/12/22 14:13:47;;;;;;;17.07;8.10;;;10.30;99.90;;;;;;4954633;28;20647;-63
2022/12/22 14:16:16;;;;;;;15.73;8.03;;;10.40;99.90;;;;;;4953054;29;20211;-63
2022/12/22 14:18:45;;;;;;;19.87;8.00;;;10.40;99.90;;;;;;4954251;28;20275;-63
2022/12/22 14:21:13;;;;;;;21.53;8.60;;;10.40;99.90;;;;;;4953764;28;20192;-63
2022/12/22 14:23:43;;;;;;;24.70;9.13;;;10.40;99.90;;;;;;4953468;28;20571;-63
2022/12/22 14:26:17;;;;;;;13.63;8.27;;;10.50;99.90;;;;;;4953535;28;20546;-63
2022/12/22 14:28:52;;;;;;;20.27;8.13;;;10.50;99.90;;;;;;4953821;28;20615;-63
2022/12/22 14:31:20;;;;;;;20.87;8.03;;;10.60;99.90;;;;;;4954052;28;20272;-63
2022/12/22 14:33:53;;;;;;;24.00;7.90;;;10.60;99.90;;;;;;4953534;28;20197;-63
2022/12/22 14:36:24;;;;;;;24.50;8.73;;;10.60;99.90;;;;;;4984979;28;20643;-63
2022/12/22 14:38:54;;;;;;;18.47;8.20;;;10.60;99.90;;;;;;4954127;28;20635;-63
2022/12/22 14:41:45;;;;;;;29.20;8.73;;;10.60;99.90;;;;;;4952046;28;20188;-63
2022/12/22 14:44:19;;;;;;;25.20;8.70;;;10.60;99.90;;;;;;4953709;28;20275;-63
2022/12/22 14:47:06;;;;;;;27.50;8.63;;;10.70;99.90;;;;;;4953635;28;20223;-64
2022/12/22 14:49:43;;;;;;;28.30;8.17;;;10.60;99.90;;;;;;4984634;28;20180;-63
2022/12/22 14:52:21;;;;;;;31.60;9.10;;;10.70;99.90;;;;;;4952404;28;20192;-63
2022/12/22 15:00:01;;;;;;;42.07;7.30;;;10.70;99.90;;;;;;4953484;29;20516;-63
2022/12/22 15:02:33;;;;;;;29.30;7.27;;;10.80;99.90;;;;;;4953236;28;20200;-63
2022/12/22 15:05:25;;;;;;;29.77;7.10;;;10.80;99.90;;;;;;4953345;28;20191;-63
2022/12/22 15:07:55;;;;;;;34.33;7.87;;;10.80;99.90;;;;;;4953311;29;20188;-63
2022/12/22 15:10:40;;;;;;;31.70;7.53;;;10.80;99.90;;;;;;4953410;28;20207;-63
2022/12/22 15:13:23;;;;;;;33.77;7.73;;;10.80;99.90;;;;;;4953596;28;20250;-63
2022/12/22 15:15:53;;;;;;;40.23;7.60;;;10.80;99.90;;;;;;4953550;28;20275;-63
2022/12/22 15:18:25;;;;;;;40.53;7.00;;;10.80;99.90;;;;;;4953021;29;20201;-64
2022/12/22 15:20:53;;;;;;;36.40;7.23;;;10.80;99.90;;;;;;4951627;28;20271;-64
2022/12/22 15:23:23;;;;;;;42.17;7.67;;;10.90;99.90;;;;;;4951371;29;20235;-63
2022/12/22 15:25:51;;;;;;;48.30;8.20;;;10.90;99.90;;;;;;4953145;29;20207;-63
2022/12/22 15:28:19;;;;;;;36.83;7.37;;;10.90;99.90;;;;;;4951864;28;20209;-63
2022/12/22 15:30:48;;;;;;;42.37;7.80;;;10.80;99.90;;;;;;4952805;28;20576;-63
2022/12/22 15:33:19;;;;;;;46.70;8.73;;;10.80;99.90;;;;;;4953165;28;20251;-63
2022/12/22 15:35:48;;;;;;;64.63;8.47;;;10.80;99.90;;;;;;4952835;28;20278;-63
2022/12/22 15:38:19;;;;;;;51.73;8.67;;;10.80;99.90;;;;;;4952687;29;20203;-64
2022/12/22 15:40:47;;;;;;;49.47;9.13;;;10.80;99.90;;;;;;4952770;29;20189;-64
2022/12/22 15:43:16;;;;;;;55.37;8.60;;;10.80;99.90;;;;;;4953012;29;20200;-63
2022/12/22 15:46:06;;;;;;;63.73;8.80;;;10.80;99.90;;;;;;4952832;28;20196;-64
2022/12/22 15:48:38;;;;;;;57.33;8.97;;;10.80;99.90;;;;;;4952522;28;20188;-63
2022/12/22 15:51:16;;;;;;;49.93;8.57;;;10.80;99.90;;;;;;4952977;28;20215;-64
2022/12/22 15:53:44;;;;;;;59.37;8.87;;;10.80;99.90;;;;;;4952609;28;20191;-63
2022/12/22 15:56:17;;;;;;;61.40;9.77;;;10.80;99.90;;;;;;4952843;29;20547;-63
2022/12/22 15:58:46;;;;;;;55.73;8.83;;;10.80;99.90;;;;;;4952364;28;20198;-64
2022/12/22 16:01:14;;;;;;;57.67;8.77;;;10.80;99.90;;;;;;4952400;28;20559;-63
2022/12/22 16:03:47;;;;;;;61.00;8.87;;;10.80;99.90;;;;;;4951104;29;20245;-63
2022/12/22 16:06:18;;;;;;;55.57;9.67;;;10.80;99.90;;;;;;4952852;28;20192;-63
2022/12/22 16:08:50;;;;;;;65.33;9.73;;;10.80;99.90;;;;;;4983689;28;20203;-63
2022/12/22 16:11:19;;;;;;;56.30;8.80;;;10.80;99.90;;;;;;4952653;28;20212;-63
2022/12/22 16:13:49;;;;;;;60.93;9.60;;;10.80;99.90;;;;;;4952099;28;20200;-63
2022/12/22 16:16:17;;;;;;;61.47;10.27;;;10.80;99.90;;;;;;4951049;28;20188;-63
2022/12/22 16:18:47;;;;;;;64.80;10.33;;;10.80;99.90;;;;;;4952145;28;20262;-63
2022/12/22 16:21:18;;;;;;;71.67;8.90;;;10.80;99.90;;;;;;4950821;29;20231;-63
2022/12/22 16:23:49;;;;;;;55.37;9.50;;;10.80;99.90;;;;;;4952039;28;20232;-63
2022/12/22 16:26:20;;;;;;;73.53;11.50;;;10.80;99.90;;;;;;4952030;28;20200;-63
2022/12/22 16:28:48;;;;;;;61.90;9.97;;;10.80;99.90;;;;;;4951998;28;20562;-63
2022/12/22 16:31:19;;;;;;;64.03;9.60;;;10.80;99.90;;;;;;4952197;28;20228;-63
2022/12/22 16:33:50;;;;;;;62.13;8.33;;;10.80;99.90;;;;;;4952232;28;20228;-63
2022/12/22 16:36:18;;;;;;;76.07;10.20;;;10.80;99.90;;;;;;4983123;28;20199;-63
2022/12/22 16:38:48;;;;;;;85.77;11.10;;;10.80;99.90;;;;;;4952120;28;20203;-63
2022/12/22 16:41:21;;;;;;;63.77;8.63;;;10.80;99.90;;;;;;4955953;28;20185;-63
2022/12/22 16:43:51;;;;;;;61.73;9.07;;;10.80;99.90;;;;;;4955624;29;20510;-63
2022/12/22 16:46:38;;;;;;;63.93;9.73;;;10.80;99.90;;;;;;4956101;28;20211;-63
2022/12/22 16:49:09;;;;;;;67.07;10.27;;;10.80;99.90;;;;;;4986155;28;20197;-63
2022/12/22 16:51:44;;;;;;;64.40;10.53;;;10.80;99.90;;;;;;4955226;29;20204;-63
2022/12/22 16:54:14;;;;;;;65.93;9.20;;;10.90;99.90;;;;;;4955493;28;20191;-63
2022/12/22 16:56:45;;;;;;;69.57;9.57;;;10.80;99.90;;;;;;4955185;28;20207;-64
2022/12/22 16:59:15;;;;;;;72.07;9.10;;;10.80;99.90;;;;;;4954976;28;20189;-63
2022/12/22 17:01:47;;;;;;;55.10;8.90;;;10.90;99.90;;;;;;4955358;28;20220;-63
2022/12/22 17:04:56;;;;;;;56.30;8.93;;;10.90;99.90;;;;;;4955570;29;20192;-64
2022/12/22 17:07:39;;;;;;;60.80;9.53;;;10.90;99.90;;;;;;4954162;28;20208;-64
2022/12/22 17:10:15;;;;;;;52.53;8.70;;;10.90;99.90;;;;;;4954665;28;20196;-63
2022/12/22 17:12:43;;;;;;;54.70;8.97;;;10.90;99.90;;;;;;4953129;29;20228;-63
2022/12/22 17:15:17;;;;;;;55.43;8.07;;;10.90;99.90;;;;;;4969845;28;20638;-63
2022/12/22 17:17:45;;;;;;;53.07;8.47;;;10.90;99.90;;;;;;4954139;28;20203;-64
2022/12/22 17:20:17;;;;;;;51.73;8.63;;;11.00;99.90;;;;;;4954591;28;20558;-63
2022/12/22 17:22:49;;;;;;;53.60;9.13;;;11.00;99.90;;;;;;4955183;28;20193;-63
2022/12/22 17:25:21;;;;;;;51.17;8.57;;;11.00;99.90;;;;;;4954667;29;20207;-63
2022/12/22 17:27:50;;;;;;;53.63;8.63;;;11.00;99.90;;;;;;4954600;28;20681;-63
2022/12/22 17:30:20;;;;;;;46.40;7.90;;;11.10;99.90;;;;;;4954492;28;20197;-63
2022/12/22 17:32:51;;;;;;;46.63;8.30;;;11.10;99.90;;;;;;4954863;28;20303;-63